sensor_id;sensor_type;location;lat;lon;timestamp;P1;P2;P0
63305;PMS5003;50735;52.060;1.248;2023-07-22T00:00:21;7;7;
63305;PMS5003;50735;52.060;1.248;2023-07-22T00:02:52;8;7;
63305;PMS5003;50735;52.060;1.248;2023-07-22T00:05:24;9;6;
63305;PMS5003;50735;52.060;1.248;2023-07-22T00:07:56;8;7;
63305;PMS5003;50735;52.060;1.248;2023-07-22T00:10:28;11;9;
63305;PMS5003;50735;52.060;1.248;2023-07-22T00:13:00;5;5;
63305;PMS5003;50735;52.060;1.248;2023-07-22T00:15:31;6;6;
63305;PMS5003;50735;52.060;1.248;2023-07-22T00:18:03;4;4;
63305;PMS5003;50735;52.060;1.248;2023-07-22T00:20:35;9;7;
63305;PMS5003;50735;52.060;1.248;2023-07-22T00:23:07;6;6;
63305;PMS5003;50735;52.060;1.248;2023-07-22T00:25:39;4;4;
63305;PMS5003;50735;52.060;1.248;2023-07-22T00:28:10;6;5;
63305;PMS5003;50735;52.060;1.248;2023-07-22T00:30:42;6;6;
63305;PMS5003;50735;52.060;1.248;2023-07-22T00:33:14;8;8;
63305;PMS5003;50735;52.060;1.248;2023-07-22T00:35:47;7;5;
63305;PMS5003;50735;52.060;1.248;2023-07-22T00:38:19;5;5;
63305;PMS5003;50735;52.060;1.248;2023-07-22T00:40:51;5;5;
63305;PMS5003;50735;52.060;1.248;2023-07-22T00:43:23;8;7;
63305;PMS5003;50735;52.060;1.248;2023-07-22T00:45:54;8;7;
63305;PMS5003;50735;52.060;1.248;2023-07-22T00:48:26;6;6;
63305;PMS5003;50735;52.060;1.248;2023-07-22T00:50:59;10;6;
63305;PMS5003;50735;52.060;1.248;2023-07-22T00:53:31;4;4;
63305;PMS5003;50735;52.060;1.248;2023-07-22T00:56:03;7;7;
63305;PMS5003;50735;52.060;1.248;2023-07-22T00:58:36;7;6;
63305;PMS5003;50735;52.060;1.248;2023-07-22T01:01:08;9;6;
63305;PMS5003;50735;52.060;1.248;2023-07-22T01:03:40;7;7;
63305;PMS5003;50735;52.060;1.248;2023-07-22T01:06:12;5;5;
63305;PMS5003;50735;52.060;1.248;2023-07-22T01:08:46;6;6;
63305;PMS5003;50735;52.060;1.248;2023-07-22T01:11:17;7;6;
63305;PMS5003;50735;52.060;1.248;2023-07-22T01:13:49;10;8;
63305;PMS5003;50735;52.060;1.248;2023-07-22T01:16:21;4;4;
63305;PMS5003;50735;52.060;1.248;2023-07-22T01:18:53;6;6;
63305;PMS5003;50735;52.060;1.248;2023-07-22T01:21:25;5;5;
63305;PMS5003;50735;52.060;1.248;2023-07-22T01:23:59;5;5;
63305;PMS5003;50735;52.060;1.248;2023-07-22T01:26:31;6;6;
63305;PMS5003;50735;52.060;1.248;2023-07-22T01:29:03;7;7;
63305;PMS5003;50735;52.060;1.248;2023-07-22T01:31:37;7;6;
63305;PMS5003;50735;52.060;1.248;2023-07-22T01:34:09;7;7;
63305;PMS5003;50735;52.060;1.248;2023-07-22T01:36:41;8;8;
63305;PMS5003;50735;52.060;1.248;2023-07-22T01:39:13;4;4;
63305;PMS5003;50735;52.060;1.248;2023-07-22T01:41:45;6;6;
63305;PMS5003;50735;52.060;1.248;2023-07-22T01:44:17;7;7;
63305;PMS5003;50735;52.060;1.248;2023-07-22T01:46:48;8;7;
63305;PMS5003;50735;52.060;1.248;2023-07-22T01:49:20;6;6;
63305;PMS5003;50735;52.060;1.248;2023-07-22T01:51:52;6;6;
63305;PMS5003;50735;52.060;1.248;2023-07-22T01:54:24;11;7;
63305;PMS5003;50735;52.060;1.248;2023-07-22T01:56:56;9;8;
63305;PMS5003;50735;52.060;1.248;2023-07-22T01:59:27;10;9;
63305;PMS5003;50735;52.060;1.248;2023-07-22T02:01:59;9;7;
63305;PMS5003;50735;52.060;1.248;2023-07-22T02:04:31;12;7;
63305;PMS5003;50735;52.060;1.248;2023-07-22T02:07:03;8;6;
63305;PMS5003;50735;52.060;1.248;2023-07-22T02:09:35;11;9;
63305;PMS5003;50735;52.060;1.248;2023-07-22T02:12:07;7;7;
63305;PMS5003;50735;52.060;1.248;2023-07-22T02:14:39;10;8;
63305;PMS5003;50735;52.060;1.248;2023-07-22T02:17:11;10;10;
63305;PMS5003;50735;52.060;1.248;2023-07-22T02:19:43;13;12;
63305;PMS5003;50735;52.060;1.248;2023-07-22T02:22:15;8;6;
63305;PMS5003;50735;52.060;1.248;2023-07-22T02:24:47;7;7;
63305;PMS5003;50735;52.060;1.248;2023-07-22T02:27:19;6;6;
63305;PMS5003;50735;52.060;1.248;2023-07-22T02:29:50;10;7;
63305;PMS5003;50735;52.060;1.248;2023-07-22T02:32:22;8;8;
63305;PMS5003;50735;52.060;1.248;2023-07-22T02:34:54;8;6;
63305;PMS5003;50735;52.060;1.248;2023-07-22T02:37:26;8;8;
63305;PMS5003;50735;52.060;1.248;2023-07-22T02:39:58;8;7;
63305;PMS5003;50735;52.060;1.248;2023-07-22T02:42:30;6;6;
63305;PMS5003;50735;52.060;1.248;2023-07-22T02:45:01;8;7;
63305;PMS5003;50735;52.060;1.248;2023-07-22T02:47:34;8;7;
63305;PMS5003;50735;52.060;1.248;2023-07-22T02:50:06;7;6;
63305;PMS5003;50735;52.060;1.248;2023-07-22T02:52:39;6;6;
63305;PMS5003;50735;52.060;1.248;2023-07-22T02:55:11;8;8;
63305;PMS5003;50735;52.060;1.248;2023-07-22T02:57:44;7;7;
63305;PMS5003;50735;52.060;1.248;2023-07-22T03:00:18;9;7;
63305;PMS5003;50735;52.060;1.248;2023-07-22T03:02:50;9;7;
63305;PMS5003;50735;52.060;1.248;2023-07-22T03:05:23;7;7;
63305;PMS5003;50735;52.060;1.248;2023-07-22T03:07:55;8;7;
63305;PMS5003;50735;52.060;1.248;2023-07-22T03:10:27;5;5;
63305;PMS5003;50735;52.060;1.248;2023-07-22T03:12:59;10;7;
63305;PMS5003;50735;52.060;1.248;2023-07-22T03:15:31;7;7;
63305;PMS5003;50735;52.060;1.248;2023-07-22T03:18:03;8;8;
63305;PMS5003;50735;52.060;1.248;2023-07-22T03:20:35;5;5;
63305;PMS5003;50735;52.060;1.248;2023-07-22T03:23:07;5;5;
63305;PMS5003;50735;52.060;1.248;2023-07-22T03:25:39;8;5;
63305;PMS5003;50735;52.060;1.248;2023-07-22T03:28:11;5;5;
63305;PMS5003;50735;52.060;1.248;2023-07-22T03:30:43;6;6;
63305;PMS5003;50735;52.060;1.248;2023-07-22T03:33:15;7;6;
63305;PMS5003;50735;52.060;1.248;2023-07-22T03:35:46;5;5;
63305;PMS5003;50735;52.060;1.248;2023-07-22T03:38:18;6;4;
63305;PMS5003;50735;52.060;1.248;2023-07-22T03:40:50;10;5;
63305;PMS5003;50735;52.060;1.248;2023-07-22T03:43:22;6;6;
63305;PMS5003;50735;52.060;1.248;2023-07-22T03:45:54;8;7;
63305;PMS5003;50735;52.060;1.248;2023-07-22T03:48:25;6;6;
63305;PMS5003;50735;52.060;1.248;2023-07-22T03:50:57;8;8;
63305;PMS5003;50735;52.060;1.248;2023-07-22T03:53:30;7;5;
63305;PMS5003;50735;52.060;1.248;2023-07-22T03:56:01;7;7;
63305;PMS5003;50735;52.060;1.248;2023-07-22T03:58:33;9;5;
63305;PMS5003;50735;52.060;1.248;2023-07-22T04:01:05;8;5;
63305;PMS5003;50735;52.060;1.248;2023-07-22T04:03:37;9;9;
63305;PMS5003;50735;52.060;1.248;2023-07-22T04:06:09;9;8;
63305;PMS5003;50735;52.060;1.248;2023-07-22T04:08:40;6;6;
63305;PMS5003;50735;52.060;1.248;2023-07-22T04:11:12;7;5;
63305;PMS5003;50735;52.060;1.248;2023-07-22T04:13:44;8;6;
63305;PMS5003;50735;52.060;1.248;2023-07-22T04:16:16;10;8;
63305;PMS5003;50735;52.060;1.248;2023-07-22T04:18:48;7;7;
63305;PMS5003;50735;52.060;1.248;2023-07-22T04:21:19;8;8;
63305;PMS5003;50735;52.060;1.248;2023-07-22T04:23:51;9;9;
63305;PMS5003;50735;52.060;1.248;2023-07-22T04:26:23;12;9;
63305;PMS5003;50735;52.060;1.248;2023-07-22T04:28:55;7;7;
63305;PMS5003;50735;52.060;1.248;2023-07-22T04:31:26;11;8;
63305;PMS5003;50735;52.060;1.248;2023-07-22T04:33:58;7;7;
63305;PMS5003;50735;52.060;1.248;2023-07-22T04:36:30;9;9;
63305;PMS5003;50735;52.060;1.248;2023-07-22T04:39:02;13;9;
63305;PMS5003;50735;52.060;1.248;2023-07-22T04:41:34;9;9;
63305;PMS5003;50735;52.060;1.248;2023-07-22T04:44:05;11;9;
63305;PMS5003;50735;52.060;1.248;2023-07-22T04:46:37;8;8;
63305;PMS5003;50735;52.060;1.248;2023-07-22T04:49:09;9;7;
63305;PMS5003;50735;52.060;1.248;2023-07-22T04:51:41;9;8;
63305;PMS5003;50735;52.060;1.248;2023-07-22T04:54:13;8;8;
63305;PMS5003;50735;52.060;1.248;2023-07-22T04:56:45;7;7;
63305;PMS5003;50735;52.060;1.248;2023-07-22T04:59:17;8;7;
63305;PMS5003;50735;52.060;1.248;2023-07-22T05:01:49;11;8;
63305;PMS5003;50735;52.060;1.248;2023-07-22T05:04:20;10;8;
63305;PMS5003;50735;52.060;1.248;2023-07-22T05:06:52;8;8;
63305;PMS5003;50735;52.060;1.248;2023-07-22T05:09:24;9;9;
63305;PMS5003;50735;52.060;1.248;2023-07-22T05:11:55;13;9;
63305;PMS5003;50735;52.060;1.248;2023-07-22T05:14:27;8;8;
63305;PMS5003;50735;52.060;1.248;2023-07-22T05:16:59;9;9;
63305;PMS5003;50735;52.060;1.248;2023-07-22T05:19:31;8;7;
63305;PMS5003;50735;52.060;1.248;2023-07-22T05:22:03;8;8;
63305;PMS5003;50735;52.060;1.248;2023-07-22T05:24:34;8;7;
63305;PMS5003;50735;52.060;1.248;2023-07-22T05:27:06;9;9;
63305;PMS5003;50735;52.060;1.248;2023-07-22T05:29:38;6;6;
63305;PMS5003;50735;52.060;1.248;2023-07-22T05:32:10;9;9;
63305;PMS5003;50735;52.060;1.248;2023-07-22T05:34:42;10;9;
63305;PMS5003;50735;52.060;1.248;2023-07-22T05:37:13;8;8;
63305;PMS5003;50735;52.060;1.248;2023-07-22T05:39:45;10;8;
63305;PMS5003;50735;52.060;1.248;2023-07-22T05:42:17;7;6;
63305;PMS5003;50735;52.060;1.248;2023-07-22T05:44:50;8;8;
63305;PMS5003;50735;52.060;1.248;2023-07-22T05:47:22;8;8;
63305;PMS5003;50735;52.060;1.248;2023-07-22T05:49:53;8;5;
63305;PMS5003;50735;52.060;1.248;2023-07-22T05:52:25;7;7;
63305;PMS5003;50735;52.060;1.248;2023-07-22T05:54:57;7;7;
63305;PMS5003;50735;52.060;1.248;2023-07-22T05:57:29;6;6;
63305;PMS5003;50735;52.060;1.248;2023-07-22T06:00:01;8;8;
63305;PMS5003;50735;52.060;1.248;2023-07-22T06:02:32;8;7;
63305;PMS5003;50735;52.060;1.248;2023-07-22T06:05:04;7;6;
63305;PMS5003;50735;52.060;1.248;2023-07-22T06:07:37;8;8;
63305;PMS5003;50735;52.060;1.248;2023-07-22T06:10:09;7;6;
63305;PMS5003;50735;52.060;1.248;2023-07-22T06:12:41;7;7;
63305;PMS5003;50735;52.060;1.248;2023-07-22T06:15:14;10;10;
63305;PMS5003;50735;52.060;1.248;2023-07-22T06:17:46;6;6;
63305;PMS5003;50735;52.060;1.248;2023-07-22T06:20:17;6;6;
63305;PMS5003;50735;52.060;1.248;2023-07-22T06:22:49;7;6;
63305;PMS5003;50735;52.060;1.248;2023-07-22T06:25:21;7;5;
63305;PMS5003;50735;52.060;1.248;2023-07-22T06:27:53;6;6;
63305;PMS5003;50735;52.060;1.248;2023-07-22T06:30:25;7;7;
63305;PMS5003;50735;52.060;1.248;2023-07-22T06:32:57;6;6;
63305;PMS5003;50735;52.060;1.248;2023-07-22T06:35:28;8;7;
63305;PMS5003;50735;52.060;1.248;2023-07-22T06:38:00;6;6;
63305;PMS5003;50735;52.060;1.248;2023-07-22T06:40:32;5;5;
63305;PMS5003;50735;52.060;1.248;2023-07-22T06:43:04;7;5;
63305;PMS5003;50735;52.060;1.248;2023-07-22T06:45:36;7;7;
63305;PMS5003;50735;52.060;1.248;2023-07-22T06:48:07;8;7;
63305;PMS5003;50735;52.060;1.248;2023-07-22T06:50:39;8;5;
63305;PMS5003;50735;52.060;1.248;2023-07-22T06:53:11;8;6;
63305;PMS5003;50735;52.060;1.248;2023-07-22T06:55:48;7;7;
63305;PMS5003;50735;52.060;1.248;2023-07-22T06:58:20;7;6;
63305;PMS5003;50735;52.060;1.248;2023-07-22T07:00:52;7;7;
63305;PMS5003;50735;52.060;1.248;2023-07-22T07:03:25;5;5;
63305;PMS5003;50735;52.060;1.248;2023-07-22T07:05:57;9;4;
63305;PMS5003;50735;52.060;1.248;2023-07-22T07:08:28;6;5;
63305;PMS5003;50735;52.060;1.248;2023-07-22T07:11:00;7;7;
63305;PMS5003;50735;52.060;1.248;2023-07-22T07:13:32;6;6;
63305;PMS5003;50735;52.060;1.248;2023-07-22T07:16:20;4;4;
63305;PMS5003;50735;52.060;1.248;2023-07-22T07:18:53;5;5;
63305;PMS5003;50735;52.060;1.248;2023-07-22T07:21:26;3;3;
63305;PMS5003;50735;52.060;1.248;2023-07-22T07:23:58;7;7;
63305;PMS5003;50735;52.060;1.248;2023-07-22T07:26:29;3;3;
63305;PMS5003;50735;52.060;1.248;2023-07-22T07:29:01;5;5;
63305;PMS5003;50735;52.060;1.248;2023-07-22T07:31:33;6;4;
63305;PMS5003;50735;52.060;1.248;2023-07-22T07:34:04;4;4;
63305;PMS5003;50735;52.060;1.248;2023-07-22T07:36:36;3;3;
63305;PMS5003;50735;52.060;1.248;2023-07-22T07:39:08;4;4;
63305;PMS5003;50735;52.060;1.248;2023-07-22T07:41:40;5;5;
63305;PMS5003;50735;52.060;1.248;2023-07-22T07:44:12;9;8;
63305;PMS5003;50735;52.060;1.248;2023-07-22T07:46:43;5;5;
63305;PMS5003;50735;52.060;1.248;2023-07-22T07:49:15;5;3;
63305;PMS5003;50735;52.060;1.248;2023-07-22T07:51:47;5;4;
63305;PMS5003;50735;52.060;1.248;2023-07-22T07:54:19;4;4;
63305;PMS5003;50735;52.060;1.248;2023-07-22T07:56:51;7;5;
63305;PMS5003;50735;52.060;1.248;2023-07-22T07:59:22;7;7;
63305;PMS5003;50735;52.060;1.248;2023-07-22T08:01:54;6;5;
63305;PMS5003;50735;52.060;1.248;2023-07-22T08:04:26;5;5;
63305;PMS5003;50735;52.060;1.248;2023-07-22T08:06:58;4;4;
63305;PMS5003;50735;52.060;1.248;2023-07-22T08:09:30;3;3;
63305;PMS5003;50735;52.060;1.248;2023-07-22T08:12:01;5;5;
63305;PMS5003;50735;52.060;1.248;2023-07-22T08:14:33;3;3;
63305;PMS5003;50735;52.060;1.248;2023-07-22T08:17:05;3;3;
63305;PMS5003;50735;52.060;1.248;2023-07-22T08:19:38;7;4;
63305;PMS5003;50735;52.060;1.248;2023-07-22T08:22:09;5;5;
63305;PMS5003;50735;52.060;1.248;2023-07-22T08:24:41;8;5;
63305;PMS5003;50735;52.060;1.248;2023-07-22T08:27:13;5;3;
63305;PMS5003;50735;52.060;1.248;2023-07-22T08:29:45;4;4;
63305;PMS5003;50735;52.060;1.248;2023-07-22T08:32:17;9;6;
63305;PMS5003;50735;52.060;1.248;2023-07-22T08:34:48;3;3;
63305;PMS5003;50735;52.060;1.248;2023-07-22T08:37:20;6;6;
63305;PMS5003;50735;52.060;1.248;2023-07-22T08:39:52;4;4;
63305;PMS5003;50735;52.060;1.248;2023-07-22T08:42:24;3;3;
63305;PMS5003;50735;52.060;1.248;2023-07-22T08:44:59;7;6;
63305;PMS5003;50735;52.060;1.248;2023-07-22T08:47:35;4;4;
63305;PMS5003;50735;52.060;1.248;2023-07-22T08:50:10;5;5;
63305;PMS5003;50735;52.060;1.248;2023-07-22T08:52:45;8;4;
63305;PMS5003;50735;52.060;1.248;2023-07-22T08:55:17;5;4;
63305;PMS5003;50735;52.060;1.248;2023-07-22T08:57:50;4;4;
63305;PMS5003;50735;52.060;1.248;2023-07-22T09:00:24;8;4;
63305;PMS5003;50735;52.060;1.248;2023-07-22T09:02:56;4;4;
63305;PMS5003;50735;52.060;1.248;2023-07-22T09:05:30;4;4;
63305;PMS5003;50735;52.060;1.248;2023-07-22T09:08:04;5;4;
63305;PMS5003;50735;52.060;1.248;2023-07-22T09:10:37;3;3;
63305;PMS5003;50735;52.060;1.248;2023-07-22T09:13:10;6;3;
63305;PMS5003;50735;52.060;1.248;2023-07-22T09:15:43;2;2;
63305;PMS5003;50735;52.060;1.248;2023-07-22T09:18:14;4;4;
63305;PMS5003;50735;52.060;1.248;2023-07-22T09:20:46;5;3;
63305;PMS5003;50735;52.060;1.248;2023-07-22T09:23:18;4;4;
63305;PMS5003;50735;52.060;1.248;2023-07-22T09:26:10;3;3;
63305;PMS5003;50735;52.060;1.248;2023-07-22T09:28:50;3;2;
63305;PMS5003;50735;52.060;1.248;2023-07-22T09:31:23;3;3;
63305;PMS5003;50735;52.060;1.248;2023-07-22T09:33:57;3;3;
63305;PMS5003;50735;52.060;1.248;2023-07-22T09:36:58;4;4;
63305;PMS5003;50735;52.060;1.248;2023-07-22T09:39:30;5;4;
63305;PMS5003;50735;52.060;1.248;2023-07-22T09:42:02;5;3;
63305;PMS5003;50735;52.060;1.248;2023-07-22T09:44:35;4;2;
63305;PMS5003;50735;52.060;1.248;2023-07-22T09:47:07;2;2;
63305;PMS5003;50735;52.060;1.248;2023-07-22T09:49:40;3;3;
63305;PMS5003;50735;52.060;1.248;2023-07-22T09:52:12;4;4;
63305;PMS5003;50735;52.060;1.248;2023-07-22T09:54:47;6;3;
63305;PMS5003;50735;52.060;1.248;2023-07-22T09:57:19;4;2;
63305;PMS5003;50735;52.060;1.248;2023-07-22T09:59:52;2;2;
63305;PMS5003;50735;52.060;1.248;2023-07-22T10:02:25;3;3;
63305;PMS5003;50735;52.060;1.248;2023-07-22T10:04:58;3;3;
63305;PMS5003;50735;52.060;1.248;2023-07-22T10:07:32;3;3;
63305;PMS5003;50735;52.060;1.248;2023-07-22T10:10:07;2;2;
63305;PMS5003;50735;52.060;1.248;2023-07-22T10:12:40;4;4;
63305;PMS5003;50735;52.060;1.248;2023-07-22T10:15:13;2;2;
63305;PMS5003;50735;52.060;1.248;2023-07-22T10:17:47;5;5;
63305;PMS5003;50735;52.060;1.248;2023-07-22T10:20:19;6;4;
63305;PMS5003;50735;52.060;1.248;2023-07-22T10:22:52;2;2;
63305;PMS5003;50735;52.060;1.248;2023-07-22T10:25:24;2;2;
63305;PMS5003;50735;52.060;1.248;2023-07-22T10:27:56;2;2;
63305;PMS5003;50735;52.060;1.248;2023-07-22T10:30:27;4;3;
63305;PMS5003;50735;52.060;1.248;2023-07-22T10:32:59;1;1;
63305;PMS5003;50735;52.060;1.248;2023-07-22T10:35:41;2;2;
63305;PMS5003;50735;52.060;1.248;2023-07-22T10:38:15;4;4;
63305;PMS5003;50735;52.060;1.248;2023-07-22T10:40:49;3;2;
63305;PMS5003;50735;52.060;1.248;2023-07-22T10:43:24;6;4;
63305;PMS5003;50735;52.060;1.248;2023-07-22T10:45:57;3;3;
63305;PMS5003;50735;52.060;1.248;2023-07-22T10:48:34;3;3;
63305;PMS5003;50735;52.060;1.248;2023-07-22T10:51:09;4;3;
63305;PMS5003;50735;52.060;1.248;2023-07-22T10:53:42;3;3;
63305;PMS5003;50735;52.060;1.248;2023-07-22T10:56:15;6;5;
63305;PMS5003;50735;52.060;1.248;2023-07-22T10:58:58;6;4;
63305;PMS5003;50735;52.060;1.248;2023-07-22T11:01:34;2;2;
63305;PMS5003;50735;52.060;1.248;2023-07-22T11:04:09;3;3;
63305;PMS5003;50735;52.060;1.248;2023-07-22T11:07:00;6;4;
63305;PMS5003;50735;52.060;1.248;2023-07-22T11:09:34;6;3;
63305;PMS5003;50735;52.060;1.248;2023-07-22T11:12:12;5;5;
63305;PMS5003;50735;52.060;1.248;2023-07-22T11:14:46;5;5;
63305;PMS5003;50735;52.060;1.248;2023-07-22T11:17:27;5;5;
63305;PMS5003;50735;52.060;1.248;2023-07-22T11:20:00;4;4;
63305;PMS5003;50735;52.060;1.248;2023-07-22T11:22:33;7;4;
63305;PMS5003;50735;52.060;1.248;2023-07-22T11:25:05;6;4;
63305;PMS5003;50735;52.060;1.248;2023-07-22T11:27:38;3;3;
63305;PMS5003;50735;52.060;1.248;2023-07-22T11:30:10;3;3;
63305;PMS5003;50735;52.060;1.248;2023-07-22T11:32:43;4;4;
63305;PMS5003;50735;52.060;1.248;2023-07-22T11:35:15;6;4;
63305;PMS5003;50735;52.060;1.248;2023-07-22T11:37:47;4;4;
63305;PMS5003;50735;52.060;1.248;2023-07-22T11:40:19;3;3;
63305;PMS5003;50735;52.060;1.248;2023-07-22T11:42:51;2;2;
63305;PMS5003;50735;52.060;1.248;2023-07-22T11:45:22;6;4;
63305;PMS5003;50735;52.060;1.248;2023-07-22T11:47:54;5;5;
63305;PMS5003;50735;52.060;1.248;2023-07-22T11:50:30;7;5;
63305;PMS5003;50735;52.060;1.248;2023-07-22T11:53:03;3;3;
63305;PMS5003;50735;52.060;1.248;2023-07-22T11:55:35;7;5;
63305;PMS5003;50735;52.060;1.248;2023-07-22T11:58:07;5;5;
63305;PMS5003;50735;52.060;1.248;2023-07-22T12:00:42;3;1;
63305;PMS5003;50735;52.060;1.248;2023-07-22T12:03:14;3;3;
63305;PMS5003;50735;52.060;1.248;2023-07-22T12:05:46;5;4;
63305;PMS5003;50735;52.060;1.248;2023-07-22T12:08:18;5;4;
63305;PMS5003;50735;52.060;1.248;2023-07-22T12:10:55;6;5;
63305;PMS5003;50735;52.060;1.248;2023-07-22T12:13:28;2;2;
63305;PMS5003;50735;52.060;1.248;2023-07-22T12:16:00;5;5;
63305;PMS5003;50735;52.060;1.248;2023-07-22T12:18:40;7;4;
63305;PMS5003;50735;52.060;1.248;2023-07-22T12:21:12;9;4;
63305;PMS5003;50735;52.060;1.248;2023-07-22T12:23:45;3;3;
63305;PMS5003;50735;52.060;1.248;2023-07-22T12:26:18;3;3;
63305;PMS5003;50735;52.060;1.248;2023-07-22T12:28:49;5;5;
63305;PMS5003;50735;52.060;1.248;2023-07-22T12:31:21;4;4;
63305;PMS5003;50735;52.060;1.248;2023-07-22T12:33:53;7;7;
63305;PMS5003;50735;52.060;1.248;2023-07-22T12:36:25;6;4;
63305;PMS5003;50735;52.060;1.248;2023-07-22T12:38:56;6;5;
63305;PMS5003;50735;52.060;1.248;2023-07-22T12:41:28;4;4;
63305;PMS5003;50735;52.060;1.248;2023-07-22T12:44:00;5;5;
63305;PMS5003;50735;52.060;1.248;2023-07-22T12:46:32;2;2;
63305;PMS5003;50735;52.060;1.248;2023-07-22T12:49:03;5;5;
63305;PMS5003;50735;52.060;1.248;2023-07-22T12:51:35;6;5;
63305;PMS5003;50735;52.060;1.248;2023-07-22T12:54:07;6;5;
63305;PMS5003;50735;52.060;1.248;2023-07-22T12:56:39;4;4;
63305;PMS5003;50735;52.060;1.248;2023-07-22T12:59:10;9;4;
63305;PMS5003;50735;52.060;1.248;2023-07-22T13:01:42;7;6;
63305;PMS5003;50735;52.060;1.248;2023-07-22T13:04:14;9;5;
63305;PMS5003;50735;52.060;1.248;2023-07-22T13:06:46;3;3;
63305;PMS5003;50735;52.060;1.248;2023-07-22T13:09:17;2;2;
63305;PMS5003;50735;52.060;1.248;2023-07-22T13:11:49;4;4;
63305;PMS5003;50735;52.060;1.248;2023-07-22T13:14:21;5;3;
63305;PMS5003;50735;52.060;1.248;2023-07-22T13:16:53;3;3;
63305;PMS5003;50735;52.060;1.248;2023-07-22T13:19:24;5;4;
63305;PMS5003;50735;52.060;1.248;2023-07-22T13:21:56;4;3;
63305;PMS5003;50735;52.060;1.248;2023-07-22T13:24:28;5;4;
63305;PMS5003;50735;52.060;1.248;2023-07-22T13:27:00;3;3;
63305;PMS5003;50735;52.060;1.248;2023-07-22T13:29:31;4;2;
63305;PMS5003;50735;52.060;1.248;2023-07-22T13:32:03;3;3;
63305;PMS5003;50735;52.060;1.248;2023-07-22T13:34:36;5;4;
63305;PMS5003;50735;52.060;1.248;2023-07-22T13:37:07;3;3;
63305;PMS5003;50735;52.060;1.248;2023-07-22T13:39:39;3;3;
63305;PMS5003;50735;52.060;1.248;2023-07-22T13:42:11;5;4;
63305;PMS5003;50735;52.060;1.248;2023-07-22T13:44:43;6;3;
63305;PMS5003;50735;52.060;1.248;2023-07-22T13:47:14;5;3;
63305;PMS5003;50735;52.060;1.248;2023-07-22T13:49:46;4;4;
63305;PMS5003;50735;52.060;1.248;2023-07-22T13:52:19;3;3;
63305;PMS5003;50735;52.060;1.248;2023-07-22T13:54:50;5;4;
63305;PMS5003;50735;52.060;1.248;2023-07-22T13:57:22;6;6;
63305;PMS5003;50735;52.060;1.248;2023-07-22T13:59:54;6;3;
63305;PMS5003;50735;52.060;1.248;2023-07-22T14:02:26;6;6;
63305;PMS5003;50735;52.060;1.248;2023-07-22T14:04:57;3;3;
63305;PMS5003;50735;52.060;1.248;2023-07-22T14:07:29;4;2;
63305;PMS5003;50735;52.060;1.248;2023-07-22T14:10:01;4;4;
63305;PMS5003;50735;52.060;1.248;2023-07-22T14:12:33;4;4;
63305;PMS5003;50735;52.060;1.248;2023-07-22T14:15:06;9;4;
63305;PMS5003;50735;52.060;1.248;2023-07-22T14:17:39;5;5;
63305;PMS5003;50735;52.060;1.248;2023-07-22T14:20:11;6;4;
63305;PMS5003;50735;52.060;1.248;2023-07-22T14:22:42;7;5;
63305;PMS5003;50735;52.060;1.248;2023-07-22T14:25:14;8;5;
63305;PMS5003;50735;52.060;1.248;2023-07-22T14:27:45;7;5;
63305;PMS5003;50735;52.060;1.248;2023-07-22T14:30:17;5;5;
63305;PMS5003;50735;52.060;1.248;2023-07-22T14:32:49;7;6;
63305;PMS5003;50735;52.060;1.248;2023-07-22T14:35:21;4;4;
63305;PMS5003;50735;52.060;1.248;2023-07-22T14:37:53;5;5;
63305;PMS5003;50735;52.060;1.248;2023-07-22T14:40:25;6;6;
63305;PMS5003;50735;52.060;1.248;2023-07-22T14:42:57;5;5;
63305;PMS5003;50735;52.060;1.248;2023-07-22T14:45:29;9;7;
63305;PMS5003;50735;52.060;1.248;2023-07-22T14:48:00;8;6;
63305;PMS5003;50735;52.060;1.248;2023-07-22T14:50:32;10;5;
63305;PMS5003;50735;52.060;1.248;2023-07-22T14:53:04;4;4;
63305;PMS5003;50735;52.060;1.248;2023-07-22T14:55:36;8;6;
63305;PMS5003;50735;52.060;1.248;2023-07-22T14:58:07;5;5;
63305;PMS5003;50735;52.060;1.248;2023-07-22T15:00:39;7;7;
63305;PMS5003;50735;52.060;1.248;2023-07-22T15:03:11;5;5;
63305;PMS5003;50735;52.060;1.248;2023-07-22T15:05:43;5;5;
63305;PMS5003;50735;52.060;1.248;2023-07-22T15:08:14;7;6;
63305;PMS5003;50735;52.060;1.248;2023-07-22T15:10:46;5;5;
63305;PMS5003;50735;52.060;1.248;2023-07-22T15:13:18;5;5;
63305;PMS5003;50735;52.060;1.248;2023-07-22T15:15:49;7;5;
63305;PMS5003;50735;52.060;1.248;2023-07-22T15:18:24;8;6;
63305;PMS5003;50735;52.060;1.248;2023-07-22T15:20:56;8;6;
63305;PMS5003;50735;52.060;1.248;2023-07-22T15:23:27;5;5;
63305;PMS5003;50735;52.060;1.248;2023-07-22T15:25:59;7;7;
63305;PMS5003;50735;52.060;1.248;2023-07-22T15:28:31;6;4;
63305;PMS5003;50735;52.060;1.248;2023-07-22T15:31:03;9;6;
63305;PMS5003;50735;52.060;1.248;2023-07-22T15:33:35;7;7;
63305;PMS5003;50735;52.060;1.248;2023-07-22T15:36:06;6;6;
63305;PMS5003;50735;52.060;1.248;2023-07-22T15:38:38;9;5;
63305;PMS5003;50735;52.060;1.248;2023-07-22T15:41:10;10;8;
63305;PMS5003;50735;52.060;1.248;2023-07-22T15:43:41;7;6;
63305;PMS5003;50735;52.060;1.248;2023-07-22T15:46:14;7;5;
63305;PMS5003;50735;52.060;1.248;2023-07-22T15:48:46;6;5;
63305;PMS5003;50735;52.060;1.248;2023-07-22T15:51:17;5;5;
63305;PMS5003;50735;52.060;1.248;2023-07-22T15:53:49;5;5;
63305;PMS5003;50735;52.060;1.248;2023-07-22T15:56:21;6;6;
63305;PMS5003;50735;52.060;1.248;2023-07-22T15:58:52;6;6;
63305;PMS5003;50735;52.060;1.248;2023-07-22T16:01:24;5;5;
63305;PMS5003;50735;52.060;1.248;2023-07-22T16:03:56;4;4;
63305;PMS5003;50735;52.060;1.248;2023-07-22T16:06:28;10;7;
63305;PMS5003;50735;52.060;1.248;2023-07-22T16:08:59;14;11;
63305;PMS5003;50735;52.060;1.248;2023-07-22T16:11:31;7;6;
63305;PMS5003;50735;52.060;1.248;2023-07-22T16:14:03;9;9;
63305;PMS5003;50735;52.060;1.248;2023-07-22T16:16:35;7;7;
63305;PMS5003;50735;52.060;1.248;2023-07-22T16:19:06;9;7;
63305;PMS5003;50735;52.060;1.248;2023-07-22T16:21:38;11;9;
63305;PMS5003;50735;52.060;1.248;2023-07-22T16:24:10;8;8;
63305;PMS5003;50735;52.060;1.248;2023-07-22T16:26:42;9;7;
63305;PMS5003;50735;52.060;1.248;2023-07-22T16:29:13;10;7;
63305;PMS5003;50735;52.060;1.248;2023-07-22T16:31:45;11;6;
63305;PMS5003;50735;52.060;1.248;2023-07-22T16:34:17;8;8;
63305;PMS5003;50735;52.060;1.248;2023-07-22T16:36:48;8;8;
63305;PMS5003;50735;52.060;1.248;2023-07-22T16:39:20;6;6;
63305;PMS5003;50735;52.060;1.248;2023-07-22T16:41:52;11;9;
63305;PMS5003;50735;52.060;1.248;2023-07-22T16:44:24;5;4;
63305;PMS5003;50735;52.060;1.248;2023-07-22T16:46:56;4;4;
63305;PMS5003;50735;52.060;1.248;2023-07-22T16:49:28;5;5;
63305;PMS5003;50735;52.060;1.248;2023-07-22T16:52:00;9;6;
63305;PMS5003;50735;52.060;1.248;2023-07-22T16:54:32;8;7;
63305;PMS5003;50735;52.060;1.248;2023-07-22T16:57:04;10;7;
63305;PMS5003;50735;52.060;1.248;2023-07-22T16:59:36;9;8;
63305;PMS5003;50735;52.060;1.248;2023-07-22T17:02:08;11;9;
63305;PMS5003;50735;52.060;1.248;2023-07-22T17:04:40;9;9;
63305;PMS5003;50735;52.060;1.248;2023-07-22T17:07:12;9;9;
63305;PMS5003;50735;52.060;1.248;2023-07-22T17:09:43;8;8;
63305;PMS5003;50735;52.060;1.248;2023-07-22T17:12:15;7;7;
63305;PMS5003;50735;52.060;1.248;2023-07-22T17:14:47;7;7;
63305;PMS5003;50735;52.060;1.248;2023-07-22T17:17:19;9;9;
63305;PMS5003;50735;52.060;1.248;2023-07-22T17:19:51;16;14;
63305;PMS5003;50735;52.060;1.248;2023-07-22T17:22:23;14;11;
63305;PMS5003;50735;52.060;1.248;2023-07-22T17:24:55;11;10;